sensor_id;sensor_type;location;lat;lon;timestamp;pressure;altitude;pressure_sealevel;temperature;humidity
23361;BME280;11852;50.082;18.554;2023-03-14T00:00:26;97039.0;;;9.56;60.9
23361;BME280;11852;50.082;18.554;2023-03-14T00:01:33;97038.0;;;9.52;60.85
23361;BME280;11852;50.082;18.554;2023-03-14T00:02:41;97027.5;;;9.44;61.31
23361;BME280;11852;50.082;18.554;2023-03-14T00:03:48;97026.0;;;9.32;61.67
23361;BME280;11852;50.082;18.554;2023-03-14T00:04:55;97023.5;;;9.35;61.51
23361;BME280;11852;50.082;18.554;2023-03-14T00:06:03;97017.51;;;9.28;61.83
23361;BME280;11852;50.082;18.554;2023-03-14T00:07:12;97013.5;;;9.32;61.69
23361;BME280;11852;50.082;18.554;2023-03-14T00:08:19;97004.5;;;9.27;61.82
23361;BME280;11852;50.082;18.554;2023-03-14T00:09:26;97000.0;;;9.31;61.68
23361;BME280;11852;50.082;18.554;2023-03-14T00:10:35;96994.5;;;9.3;61.82
23361;BME280;11852;50.082;18.554;2023-03-14T00:11:43;96993.0;;;9.29;61.74
23361;BME280;11852;50.082;18.554;2023-03-14T00:12:50;96989.0;;;9.32;61.63
23361;BME280;11852;50.082;18.554;2023-03-14T00:13:57;96980.01;;;9.32;61.61
23361;BME280;11852;50.082;18.554;2023-03-14T00:15:04;96976.0;;;9.32;61.68
23361;BME280;11852;50.082;18.554;2023-03-14T00:16:12;96962.5;;;9.32;61.81
23361;BME280;11852;50.082;18.554;2023-03-14T00:17:18;96959.5;;;9.3;61.88
23361;BME280;11852;50.082;18.554;2023-03-14T00:18:25;96957.5;;;9.26;61.9
23361;BME280;11852;50.082;18.554;2023-03-14T00:19:32;96957.5;;;9.28;61.9
23361;BME280;11852;50.082;18.554;2023-03-14T00:20:40;96966.0;;;9.21;61.98
23361;BME280;11852;50.082;18.554;2023-03-14T00:21:47;96967.51;;;9.24;61.86
23361;BME280;11852;50.082;18.554;2023-03-14T00:22:54;96963.0;;;9.01;62.54
23361;BME280;11852;50.082;18.554;2023-03-14T00:24:01;96965.5;;;9.1;62.31
23361;BME280;11852;50.082;18.554;2023-03-14T00:25:09;96973.5;;;9.19;62.15
23361;BME280;11852;50.082;18.554;2023-03-14T00:26:16;96974.5;;;9.23;62.2
23361;BME280;11852;50.082;18.554;2023-03-14T00:27:22;96966.5;;;9.11;62.28
23361;BME280;11852;50.082;18.554;2023-03-14T00:28:29;96967.0;;;9.08;62.32
23361;BME280;11852;50.082;18.554;2023-03-14T00:29:36;96966.5;;;9.12;62.22
23361;BME280;11852;50.082;18.554;2023-03-14T00:30:43;96973.0;;;9.18;62.1
23361;BME280;11852;50.082;18.554;2023-03-14T00:31:51;96975.5;;;8.96;62.72
23361;BME280;11852;50.082;18.554;2023-03-14T00:32:58;96975.0;;;8.85;62.99
23361;BME280;11852;50.082;18.554;2023-03-14T00:34:05;96974.0;;;8.8;63.06
23361;BME280;11852;50.082;18.554;2023-03-14T00:35:12;96972.5;;;8.93;62.86
23361;BME280;11852;50.082;18.554;2023-03-14T00:36:19;96965.5;;;8.89;63.04
23361;BME280;11852;50.082;18.554;2023-03-14T00:37:27;96965.0;;;8.8;63.41
23361;BME280;11852;50.082;18.554;2023-03-14T00:38:34;96960.5;;;8.88;63.26
23361;BME280;11852;50.082;18.554;2023-03-14T00:39:41;96959.5;;;8.95;63.1
23361;BME280;11852;50.082;18.554;2023-03-14T00:40:48;96960.0;;;9.03;62.8
23361;BME280;11852;50.082;18.554;2023-03-14T00:41:55;96948.5;;;8.98;63.04
23361;BME280;11852;50.082;18.554;2023-03-14T00:43:02;96940.0;;;9.01;63.04
23361;BME280;11852;50.082;18.554;2023-03-14T00:44:09;96934.0;;;9.02;62.96
23361;BME280;11852;50.082;18.554;2023-03-14T00:45:16;96933.5;;;9.01;62.95
23361;BME280;11852;50.082;18.554;2023-03-14T00:46:23;96933.0;;;8.95;63.13
23361;BME280;11852;50.082;18.554;2023-03-14T00:47:30;96934.5;;;8.94;63.23
23361;BME280;11852;50.082;18.554;2023-03-14T00:48:37;96933.0;;;8.91;63.7
23361;BME280;11852;50.082;18.554;2023-03-14T00:49:44;96936.0;;;8.85;64.0
23361;BME280;11852;50.082;18.554;2023-03-14T00:50:51;96935.0;;;8.85;64.18
23361;BME280;11852;50.082;18.554;2023-03-14T00:51:59;96932.0;;;8.82;64.34
23361;BME280;11852;50.082;18.554;2023-03-14T00:53:06;96936.0;;;8.77;64.48
23361;BME280;11852;50.082;18.554;2023-03-14T00:54:13;96933.5;;;8.76;64.39
23361;BME280;11852;50.082;18.554;2023-03-14T00:55:21;96933.0;;;8.72;64.54
23361;BME280;11852;50.082;18.554;2023-03-14T00:56:28;96937.0;;;8.77;64.42
23361;BME280;11852;50.082;18.554;2023-03-14T00:57:35;96938.5;;;8.76;64.53
23361;BME280;11852;50.082;18.554;2023-03-14T00:58:42;96942.01;;;8.77;64.53
23361;BME280;11852;50.082;18.554;2023-03-14T00:59:50;96946.0;;;8.6;65.19
23361;BME280;11852;50.082;18.554;2023-03-14T01:00:56;96945.0;;;8.67;65.35
23361;BME280;11852;50.082;18.554;2023-03-14T01:02:03;96938.5;;;8.72;65.12
23361;BME280;11852;50.082;18.554;2023-03-14T01:03:13;96933.5;;;8.79;64.86
23361;BME280;11852;50.082;18.554;2023-03-14T01:04:20;96927.0;;;8.85;64.72
23361;BME280;11852;50.082;18.554;2023-03-14T01:05:28;96924.5;;;8.88;64.71
23361;BME280;11852;50.082;18.554;2023-03-14T01:06:35;96916.0;;;8.85;64.71
23361;BME280;11852;50.082;18.554;2023-03-14T01:07:42;96911.0;;;8.92;64.44
23361;BME280;11852;50.082;18.554;2023-03-14T01:08:49;96894.5;;;8.94;64.46
23361;BME280;11852;50.082;18.554;2023-03-14T01:09:56;96888.5;;;8.84;65.04
23361;BME280;11852;50.082;18.554;2023-03-14T01:11:06;96886.0;;;8.84;65.01
23361;BME280;11852;50.082;18.554;2023-03-14T01:12:13;96882.5;;;8.9;64.72
23361;BME280;11852;50.082;18.554;2023-03-14T01:13:20;96880.0;;;8.93;64.68
23361;BME280;11852;50.082;18.554;2023-03-14T01:14:27;96871.5;;;8.91;64.6
23361;BME280;11852;50.082;18.554;2023-03-14T01:15:34;96861.5;;;8.84;64.83
23361;BME280;11852;50.082;18.554;2023-03-14T01:16:41;96856.0;;;8.8;65.1
23361;BME280;11852;50.082;18.554;2023-03-14T01:17:48;96848.0;;;8.8;65.28
23361;BME280;11852;50.082;18.554;2023-03-14T01:18:55;96846.0;;;8.82;65.18
23361;BME280;11852;50.082;18.554;2023-03-14T01:20:04;96840.0;;;8.8;65.18
23361;BME280;11852;50.082;18.554;2023-03-14T01:21:13;96839.5;;;8.78;65.23
23361;BME280;11852;50.082;18.554;2023-03-14T01:22:20;96837.5;;;8.77;65.32
23361;BME280;11852;50.082;18.554;2023-03-14T01:23:27;96835.0;;;8.75;65.35
23361;BME280;11852;50.082;18.554;2023-03-14T01:24:34;96835.5;;;8.74;65.57
23361;BME280;11852;50.082;18.554;2023-03-14T01:25:41;96834.0;;;8.76;65.45
23361;BME280;11852;50.082;18.554;2023-03-14T01:26:48;96834.5;;;8.73;65.54
23361;BME280;11852;50.082;18.554;2023-03-14T01:27:55;96830.5;;;8.75;65.45
23361;BME280;11852;50.082;18.554;2023-03-14T01:29:02;96833.0;;;8.77;65.4
23361;BME280;11852;50.082;18.554;2023-03-14T01:30:10;96831.0;;;8.81;65.37
23361;BME280;11852;50.082;18.554;2023-03-14T01:31:17;96833.0;;;8.76;65.6
23361;BME280;11852;50.082;18.554;2023-03-14T01:32:24;96834.0;;;8.73;65.71
23361;BME280;11852;50.082;18.554;2023-03-14T01:33:31;96830.0;;;8.77;65.5
23361;BME280;11852;50.082;18.554;2023-03-14T01:34:38;96827.0;;;8.78;65.42
23361;BME280;11852;50.082;18.554;2023-03-14T01:35:45;96829.0;;;8.88;65.36
23361;BME280;11852;50.082;18.554;2023-03-14T01:36:52;96824.0;;;8.86;65.43
23361;BME280;11852;50.082;18.554;2023-03-14T01:37:59;96820.49;;;8.92;65.39
23361;BME280;11852;50.082;18.554;2023-03-14T01:39:06;96817.51;;;8.85;65.67
23361;BME280;11852;50.082;18.554;2023-03-14T01:40:13;96819.0;;;8.9;65.47
23361;BME280;11852;50.082;18.554;2023-03-14T01:41:21;96820.49;;;8.97;65.14
23361;BME280;11852;50.082;18.554;2023-03-14T01:42:27;96818.5;;;9.06;64.84
23361;BME280;11852;50.082;18.554;2023-03-14T01:43:34;96820.49;;;8.99;65.0
23361;BME280;11852;50.082;18.554;2023-03-14T01:47:11;96824.5;;;9.11;64.57
23361;BME280;11852;50.082;18.554;2023-03-14T01:48:18;96823.0;;;9.13;64.53
23361;BME280;11852;50.082;18.554;2023-03-14T01:50:37;96826.0;;;9.15;64.21
23361;BME280;11852;50.082;18.554;2023-03-14T01:51:56;96824.5;;;9.15;64.19
23361;BME280;11852;50.082;18.554;2023-03-14T01:53:00;96829.51;;;9.18;64.17
23361;BME280;11852;50.082;18.554;2023-03-14T01:55:24;96834.5;;;9.19;64.13
23361;BME280;11852;50.082;18.554;2023-03-14T01:56:31;96834.5;;;9.26;64.14
23361;BME280;11852;50.082;18.554;2023-03-14T01:57:39;96833.5;;;9.35;63.96
23361;BME280;11852;50.082;18.554;2023-03-14T01:58:46;96838.0;;;9.39;63.85
23361;BME280;11852;50.082;18.554;2023-03-14T02:00:03;96841.5;;;9.39;63.69
23361;BME280;11852;50.082;18.554;2023-03-14T02:01:08;96840.0;;;9.4;63.51
23361;BME280;11852;50.082;18.554;2023-03-14T02:02:15;96838.0;;;9.39;63.5
23361;BME280;11852;50.082;18.554;2023-03-14T02:03:22;96837.0;;;9.35;63.7
23361;BME280;11852;50.082;18.554;2023-03-14T02:04:30;96840.0;;;9.35;63.67
23361;BME280;11852;50.082;18.554;2023-03-14T02:05:38;96838.5;;;9.34;63.74
23361;BME280;11852;50.082;18.554;2023-03-14T02:06:48;96836.0;;;9.34;63.63
23361;BME280;11852;50.082;18.554;2023-03-14T02:07:56;96834.5;;;9.34;63.58
23361;BME280;11852;50.082;18.554;2023-03-14T02:09:03;96832.99;;;9.34;63.53
23361;BME280;11852;50.082;18.554;2023-03-14T02:10:10;96831.0;;;9.31;63.62
23361;BME280;11852;50.082;18.554;2023-03-14T02:11:17;96826.5;;;9.31;63.67
23361;BME280;11852;50.082;18.554;2023-03-14T02:12:24;96825.5;;;9.29;63.71
23361;BME280;11852;50.082;18.554;2023-03-14T02:13:31;96819.5;;;9.28;63.76
23361;BME280;11852;50.082;18.554;2023-03-14T02:14:38;96816.5;;;9.28;63.74
23361;BME280;11852;50.082;18.554;2023-03-14T02:15:45;96819.0;;;9.27;63.78
23361;BME280;11852;50.082;18.554;2023-03-14T02:16:53;96813.0;;;9.27;63.73
23361;BME280;11852;50.082;18.554;2023-03-14T02:18:01;96817.01;;;9.24;63.84
23361;BME280;11852;50.082;18.554;2023-03-14T02:19:07;96810.5;;;9.25;63.74
23361;BME280;11852;50.082;18.554;2023-03-14T02:21:34;96812.0;;;9.22;63.97
23361;BME280;11852;50.082;18.554;2023-03-14T02:22:37;96808.5;;;9.18;64.11
23361;BME280;11852;50.082;18.554;2023-03-14T02:23:58;96812.0;;;9.12;64.11
23361;BME280;11852;50.082;18.554;2023-03-14T02:26:20;96814.5;;;9.2;63.93
23361;BME280;11852;50.082;18.554;2023-03-14T02:27:23;96816.5;;;9.18;64.23
23361;BME280;11852;50.082;18.554;2023-03-14T02:28:30;96817.51;;;9.2;64.13
23361;BME280;11852;50.082;18.554;2023-03-14T02:29:39;96824.5;;;9.28;64.01
23361;BME280;11852;50.082;18.554;2023-03-14T02:30:44;96827.0;;;9.32;63.83
23361;BME280;11852;50.082;18.554;2023-03-14T02:31:51;96829.0;;;9.3;63.88
23361;BME280;11852;50.082;18.554;2023-03-14T02:32:59;96838.5;;;9.24;63.99
23361;BME280;11852;50.082;18.554;2023-03-14T02:34:05;96840.0;;;9.27;63.93
23361;BME280;11852;50.082;18.554;2023-03-14T02:35:14;96842.01;;;9.34;63.61
23361;BME280;11852;50.082;18.554;2023-03-14T02:36:20;96841.0;;;9.35;63.41
23361;BME280;11852;50.082;18.554;2023-03-14T02:37:29;96842.01;;;9.39;63.24
23361;BME280;11852;50.082;18.554;2023-03-14T02:39:49;96843.5;;;9.35;63.43
23361;BME280;11852;50.082;18.554;2023-03-14T02:40:56;96845.5;;;9.34;63.33
23361;BME280;11852;50.082;18.554;2023-03-14T02:42:03;96841.5;;;9.35;63.3
23361;BME280;11852;50.082;18.554;2023-03-14T02:43:10;96846.0;;;9.38;63.29
23361;BME280;11852;50.082;18.554;2023-03-14T02:44:17;96844.0;;;9.38;63.19
23361;BME280;11852;50.082;18.554;2023-03-14T02:45:34;96844.99;;;9.27;63.56
23361;BME280;11852;50.082;18.554;2023-03-14T02:46:31;96846.5;;;9.31;63.5
23361;BME280;11852;50.082;18.554;2023-03-14T02:47:39;96844.0;;;9.13;63.85
23361;BME280;11852;50.082;18.554;2023-03-14T02:48:50;96842.51;;;9.24;63.22
23361;BME280;11852;50.082;18.554;2023-03-14T02:49:53;96839.0;;;9.3;63.15
23361;BME280;11852;50.082;18.554;2023-03-14T02:50:59;96837.0;;;9.36;62.78
23361;BME280;11852;50.082;18.554;2023-03-14T02:52:06;96832.99;;;9.43;62.74
23361;BME280;11852;50.082;18.554;2023-03-14T02:53:17;96832.0;;;9.49;62.46
23361;BME280;11852;50.082;18.554;2023-03-14T02:54:23;96824.5;;;9.4;62.67
23361;BME280;11852;50.082;18.554;2023-03-14T02:55:30;96820.49;;;9.43;62.47
23361;BME280;11852;50.082;18.554;2023-03-14T02:56:37;96816.0;;;9.49;62.3
23361;BME280;11852;50.082;18.554;2023-03-14T02:57:44;96814.0;;;9.47;62.39
23361;BME280;11852;50.082;18.554;2023-03-14T02:58:51;96807.0;;;9.45;62.36
23361;BME280;11852;50.082;18.554;2023-03-14T02:59:58;96809.5;;;9.43;62.79
23361;BME280;11852;50.082;18.554;2023-03-14T03:01:05;96810.5;;;9.46;62.78
23361;BME280;11852;50.082;18.554;2023-03-14T03:02:12;96813.0;;;9.44;62.69
23361;BME280;11852;50.082;18.554;2023-03-14T03:03:19;96816.0;;;9.42;62.81
23361;BME280;11852;50.082;18.554;2023-03-14T03:04:31;96812.5;;;9.3;63.22
23361;BME280;11852;50.082;18.554;2023-03-14T03:05:38;96811.5;;;9.3;62.99
23361;BME280;11852;50.082;18.554;2023-03-14T03:06:45;96809.0;;;9.23;63.01
23361;BME280;11852;50.082;18.554;2023-03-14T03:07:53;96807.0;;;9.31;62.72
23361;BME280;11852;50.082;18.554;2023-03-14T03:09:00;96807.0;;;9.35;62.75
23361;BME280;11852;50.082;18.554;2023-03-14T03:10:07;96803.5;;;9.37;62.81
23361;BME280;11852;50.082;18.554;2023-03-14T03:11:14;96802.5;;;9.41;62.58
23361;BME280;11852;50.082;18.554;2023-03-14T03:12:24;96800.5;;;9.45;62.56
23361;BME280;11852;50.082;18.554;2023-03-14T03:13:31;96810.0;;;9.45;62.43
23361;BME280;11852;50.082;18.554;2023-03-14T03:14:38;96814.0;;;9.45;62.49
23361;BME280;11852;50.082;18.554;2023-03-14T03:15:45;96818.5;;;9.47;62.52
23361;BME280;11852;50.082;18.554;2023-03-14T03:16:52;96822.5;;;9.45;62.58
23361;BME280;11852;50.082;18.554;2023-03-14T03:17:59;96831.0;;;9.42;62.71
23361;BME280;11852;50.082;18.554;2023-03-14T03:19:06;96837.0;;;9.47;62.41
23361;BME280;11852;50.082;18.554;2023-03-14T03:20:13;96849.0;;;9.46;62.59
23361;BME280;11852;50.082;18.554;2023-03-14T03:21:20;96858.0;;;9.49;62.62
23361;BME280;11852;50.082;18.554;2023-03-14T03:22:27;96870.5;;;9.51;62.55
23361;BME280;11852;50.082;18.554;2023-03-14T03:23:34;96879.5;;;9.55;62.52
23361;BME280;11852;50.082;18.554;2023-03-14T03:24:41;96879.51;;;9.58;62.5
23361;BME280;11852;50.082;18.554;2023-03-14T03:25:49;96881.5;;;9.62;62.42
23361;BME280;11852;50.082;18.554;2023-03-14T03:26:55;96880.01;;;9.64;62.39
23361;BME280;11852;50.082;18.554;2023-03-14T03:28:03;96878.0;;;9.62;62.37
23361;BME280;11852;50.082;18.554;2023-03-14T03:29:10;96880.51;;;9.63;62.31
23361;BME280;11852;50.082;18.554;2023-03-14T03:30:17;96882.99;;;9.56;62.63
23361;BME280;11852;50.082;18.554;2023-03-14T03:31:24;96882.0;;;9.56;62.79
23361;BME280;11852;50.082;18.554;2023-03-14T03:32:31;96881.5;;;9.53;62.83
23361;BME280;11852;50.082;18.554;2023-03-14T03:33:38;96881.99;;;9.59;62.65
23361;BME280;11852;50.082;18.554;2023-03-14T03:34:45;96885.0;;;9.63;62.5
23361;BME280;11852;50.082;18.554;2023-03-14T03:35:52;96881.0;;;9.59;62.54
23361;BME280;11852;50.082;18.554;2023-03-14T03:37:00;96881.0;;;9.64;62.51
23361;BME280;11852;50.082;18.554;2023-03-14T03:38:07;96882.0;;;9.67;62.44
23361;BME280;11852;50.082;18.554;2023-03-14T03:39:14;96886.0;;;9.64;62.49
23361;BME280;11852;50.082;18.554;2023-03-14T03:40:21;96887.5;;;9.6;62.67
23361;BME280;11852;50.082;18.554;2023-03-14T03:41:28;96883.0;;;9.6;62.63
23361;BME280;11852;50.082;18.554;2023-03-14T03:42:35;96882.5;;;9.75;62.27
23361;BME280;11852;50.082;18.554;2023-03-14T03:43:42;96881.5;;;9.75;62.33
23361;BME280;11852;50.082;18.554;2023-03-14T03:44:49;96879.0;;;9.74;62.35
23361;BME280;11852;50.082;18.554;2023-03-14T03:45:56;96876.0;;;9.71;62.54
23361;BME280;11852;50.082;18.554;2023-03-14T03:47:03;96872.0;;;9.74;62.49
23361;BME280;11852;50.082;18.554;2023-03-14T03:48:10;96866.0;;;9.71;62.64
23361;BME280;11852;50.082;18.554;2023-03-14T03:49:17;96863.0;;;9.71;62.58
23361;BME280;11852;50.082;18.554;2023-03-14T03:50:24;96863.0;;;9.72;62.54
23361;BME280;11852;50.082;18.554;2023-03-14T03:51:31;96864.0;;;9.65;62.75
23361;BME280;11852;50.082;18.554;2023-03-14T03:52:38;96862.5;;;9.65;62.68
23361;BME280;11852;50.082;18.554;2023-03-14T03:53:45;96865.0;;;9.7;62.44
23361;BME280;11852;50.082;18.554;2023-03-14T03:54:52;96871.5;;;9.69;62.46
23361;BME280;11852;50.082;18.554;2023-03-14T03:56:01;96885.0;;;9.72;62.46
23361;BME280;11852;50.082;18.554;2023-03-14T03:57:08;96881.5;;;9.69;62.54
23361;BME280;11852;50.082;18.554;2023-03-14T03:58:15;96884.5;;;9.72;62.58
23361;BME280;11852;50.082;18.554;2023-03-14T03:59:22;96884.5;;;9.69;62.63
23361;BME280;11852;50.082;18.554;2023-03-14T04:00:29;96882.5;;;9.7;62.65
23361;BME280;11852;50.082;18.554;2023-03-14T04:01:37;96881.5;;;9.69;62.65
23361;BME280;11852;50.082;18.554;2023-03-14T04:02:44;96881.99;;;9.66;62.84
23361;BME280;11852;50.082;18.554;2023-03-14T04:03:52;96878.0;;;9.63;62.93
23361;BME280;11852;50.082;18.554;2023-03-14T04:04:58;96881.0;;;9.6;63.0
23361;BME280;11852;50.082;18.554;2023-03-14T04:06:10;96878.5;;;9.59;63.0
23361;BME280;11852;50.082;18.554;2023-03-14T04:07:15;96880.01;;;9.52;63.28
23361;BME280;11852;50.082;18.554;2023-03-14T04:08:22;96883.5;;;9.46;63.46
23361;BME280;11852;50.082;18.554;2023-03-14T04:09:30;96887.5;;;9.42;63.58
23361;BME280;11852;50.082;18.554;2023-03-14T04:10:37;96884.5;;;9.43;63.48
23361;BME280;11852;50.082;18.554;2023-03-14T04:11:44;96883.5;;;9.48;63.31
23361;BME280;11852;50.082;18.554;2023-03-14T04:12:51;96878.0;;;9.47;63.38
23361;BME280;11852;50.082;18.554;2023-03-14T04:13:58;96874.0;;;9.5;63.25
23361;BME280;11852;50.082;18.554;2023-03-14T04:15:07;96867.51;;;9.51;63.19
23361;BME280;11852;50.082;18.554;2023-03-14T04:16:15;96861.5;;;9.51;63.1
23361;BME280;11852;50.082;18.554;2023-03-14T04:17:21;96852.5;;;9.51;63.04
23361;BME280;11852;50.082;18.554;2023-03-14T04:18:28;96847.0;;;9.48;63.15
23361;BME280;11852;50.082;18.554;2023-03-14T04:19:35;96842.5;;;9.48;63.22
23361;BME280;11852;50.082;18.554;2023-03-14T04:20:42;96839.5;;;9.45;63.42
23361;BME280;11852;50.082;18.554;2023-03-14T04:21:49;96835.0;;;9.42;64.15
23361;BME280;11852;50.082;18.554;2023-03-14T04:22:56;96835.0;;;9.34;64.32
23361;BME280;11852;50.082;18.554;2023-03-14T04:24:04;96831.99;;;9.3;64.25
23361;BME280;11852;50.082;18.554;2023-03-14T04:25:11;96833.5;;;9.32;64.18
23361;BME280;11852;50.082;18.554;2023-03-14T04:26:18;96836.0;;;9.33;64.17
23361;BME280;11852;50.082;18.554;2023-03-14T04:27:25;96832.99;;;9.34;64.07
23361;BME280;11852;50.082;18.554;2023-03-14T04:28:33;96832.0;;;9.26;64.11
23361;BME280;11852;50.082;18.554;2023-03-14T04:29:40;96828.5;;;9.28;63.98
23361;BME280;11852;50.082;18.554;2023-03-14T04:30:47;96827.5;;;9.33;63.89
23361;BME280;11852;50.082;18.554;2023-03-14T04:31:54;96827.0;;;9.34;63.97
23361;BME280;11852;50.082;18.554;2023-03-14T04:33:01;96824.5;;;9.31;64.01
23361;BME280;11852;50.082;18.554;2023-03-14T04:34:08;96821.0;;;9.22;64.1
23361;BME280;11852;50.082;18.554;2023-03-14T04:35:15;96822.0;;;9.16;64.22
23361;BME280;11852;50.082;18.554;2023-03-14T04:36:22;96823.5;;;9.2;64.11
23361;BME280;11852;50.082;18.554;2023-03-14T04:37:29;96824.5;;;9.19;64.07
23361;BME280;11852;50.082;18.554;2023-03-14T04:38:36;96825.0;;;9.23;64.01
23361;BME280;11852;50.082;18.554;2023-03-14T04:39:43;96825.5;;;9.24;64.28
23361;BME280;11852;50.082;18.554;2023-03-14T04:40:51;96824.0;;;9.02;64.93
23361;BME280;11852;50.082;18.554;2023-03-14T04:41:58;96822.0;;;8.97;64.95
23361;BME280;11852;50.082;18.554;2023-03-14T04:43:05;96823.0;;;9.0;64.76
23361;BME280;11852;50.082;18.554;2023-03-14T04:44:12;96825.5;;;9.03;64.68
23361;BME280;11852;50.082;18.554;2023-03-14T04:45:19;96824.5;;;9.01;64.86
23361;BME280;11852;50.082;18.554;2023-03-14T04:46:26;96824.0;;;8.99;65.22
23361;BME280;11852;50.082;18.554;2023-03-14T04:47:33;96819.5;;;8.94;65.32
23361;BME280;11852;50.082;18.554;2023-03-14T04:48:40;96817.0;;;8.88;65.61
23361;BME280;11852;50.082;18.554;2023-03-14T04:49:47;96818.0;;;8.83;65.86
23361;BME280;11852;50.082;18.554;2023-03-14T04:50:54;96823.5;;;8.74;65.99
23361;BME280;11852;50.082;18.554;2023-03-14T04:52:01;96824.5;;;8.77;65.86
23361;BME280;11852;50.082;18.554;2023-03-14T04:53:08;96820.0;;;8.83;65.61
23361;BME280;11852;50.082;18.554;2023-03-14T04:54:16;96819.99;;;8.83;65.53
23361;BME280;11852;50.082;18.554;2023-03-14T04:55:22;96816.0;;;8.85;65.43
23361;BME280;11852;50.082;18.554;2023-03-14T04:56:30;96818.01;;;8.89;65.1
23361;BME280;11852;50.082;18.554;2023-03-14T04:57:37;96817.0;;;8.93;64.9
23361;BME280;11852;50.082;18.554;2023-03-14T04:58:44;96819.0;;;8.94;64.84
23361;BME280;11852;50.082;18.554;2023-03-14T04:59:51;96815.5;;;8.91;64.88
23361;BME280;11852;50.082;18.554;2023-03-14T05:01:03;96818.5;;;8.94;64.67
23361;BME280;11852;50.082;18.554;2023-03-14T05:02:10;96818.01;;;9.01;64.47
23361;BME280;11852;50.082;18.554;2023-03-14T05:03:18;96816.5;;;8.98;64.44
23361;BME280;11852;50.082;18.554;2023-03-14T05:04:24;96818.5;;;9.06;64.01
23361;BME280;11852;50.082;18.554;2023-03-14T05:05:31;96818.0;;;8.99;64.03
23361;BME280;11852;50.082;18.554;2023-03-14T05:06:39;96813.5;;;9.06;63.67
23361;BME280;11852;50.082;18.554;2023-03-14T05:07:45;96808.5;;;9.12;63.51
23361;BME280;11852;50.082;18.554;2023-03-14T05:08:52;96804.51;;;9.1;63.6
23361;BME280;11852;50.082;18.554;2023-03-14T05:10:00;96801.5;;;9.19;63.24
23361;BME280;11852;50.082;18.554;2023-03-14T05:11:09;96802.5;;;9.26;63.05
23361;BME280;11852;50.082;18.554;2023-03-14T05:12:14;96804.0;;;9.19;63.06
23361;BME280;11852;50.082;18.554;2023-03-14T05:13:21;96797.0;;;9.24;62.8
23361;BME280;11852;50.082;18.554;2023-03-14T05:14:28;96794.0;;;9.22;62.89
23361;BME280;11852;50.082;18.554;2023-03-14T05:15:35;96791.0;;;9.28;62.63
23361;BME280;11852;50.082;18.554;2023-03-14T05:16:42;96787.5;;;9.35;62.4
23361;BME280;11852;50.082;18.554;2023-03-14T05:17:48;96784.5;;;9.48;62.13
23361;BME280;11852;50.082;18.554;2023-03-14T05:18:55;96786.5;;;9.39;62.33
23361;BME280;11852;50.082;18.554;2023-03-14T05:20:03;96785.0;;;9.45;62.04
23361;BME280;11852;50.082;18.554;2023-03-14T05:21:09;96785.0;;;9.47;61.92
23361;BME280;11852;50.082;18.554;2023-03-14T05:22:18;96787.5;;;9.39;62.14
23361;BME280;11852;50.082;18.554;2023-03-14T05:23:25;96792.51;;;9.39;62.07
23361;BME280;11852;50.082;18.554;2023-03-14T05:24:31;96793.0;;;9.36;61.9
23361;BME280;11852;50.082;18.554;2023-03-14T05:25:39;96792.01;;;9.42;61.76
23361;BME280;11852;50.082;18.554;2023-03-14T05:26:46;96796.5;;;9.42;61.73
23361;BME280;11852;50.082;18.554;2023-03-14T05:27:53;96797.0;;;9.41;61.81
23361;BME280;11852;50.082;18.554;2023-03-14T05:29:00;96790.5;;;9.43;61.83
23361;BME280;11852;50.082;18.554;2023-03-14T05:30:07;96785.5;;;9.4;61.88
23361;BME280;11852;50.082;18.554;2023-03-14T05:31:14;96783.5;;;9.4;61.82
23361;BME280;11852;50.082;18.554;2023-03-14T05:32:21;96785.5;;;9.37;61.95
23361;BME280;11852;50.082;18.554;2023-03-14T05:33:28;96786.0;;;9.41;61.81
23361;BME280;11852;50.082;18.554;2023-03-14T05:34:35;96783.5;;;9.39;62.09
23361;BME280;11852;50.082;18.554;2023-03-14T05:35:43;96781.0;;;9.36;62.18
23361;BME280;11852;50.082;18.554;2023-03-14T05:36:50;96781.01;;;9.36;62.16
23361;BME280;11852;50.082;18.554;2023-03-14T05:37:57;96777.5;;;9.38;62.15
23361;BME280;11852;50.082;18.554;2023-03-14T05:39:04;96776.0;;;9.44;62.02
23361;BME280;11852;50.082;18.554;2023-03-14T05:40:11;96770.5;;;9.4;62.18
23361;BME280;11852;50.082;18.554;2023-03-14T05:41:18;96766.0;;;9.34;62.32
23361;BME280;11852;50.082;18.554;2023-03-14T05:42:25;96768.99;;;9.36;62.31
23361;BME280;11852;50.082;18.554;2023-03-14T05:43:32;96761.5;;;9.45;62.03
23361;BME280;11852;50.082;18.554;2023-03-14T05:44:39;96759.5;;;9.44;62.12
23361;BME280;11852;50.082;18.554;2023-03-14T05:45:45;96760.5;;;9.4;62.19
23361;BME280;11852;50.082;18.554;2023-03-14T05:46:52;96759.5;;;9.46;62.04
23361;BME280;11852;50.082;18.554;2023-03-14T05:47:59;96760.0;;;9.35;62.23
23361;BME280;11852;50.082;18.554;2023-03-14T05:49:06;96756.5;;;9.4;62.08
23361;BME280;11852;50.082;18.554;2023-03-14T05:50:13;96753.0;;;9.41;62.01
23361;BME280;11852;50.082;18.554;2023-03-14T05:51:20;96753.0;;;9.44;61.96
23361;BME280;11852;50.082;18.554;2023-03-14T05:52:27;96751.0;;;9.47;61.96
23361;BME280;11852;50.082;18.554;2023-03-14T05:53:34;96756.5;;;9.5;61.96
23361;BME280;11852;50.082;18.554;2023-03-14T05:54:41;96753.0;;;9.43;62.11
23361;BME280;11852;50.082;18.554;2023-03-14T05:55:50;96753.0;;;9.52;61.98
23361;BME280;11852;50.082;18.554;2023-03-14T05:56:54;96750.0;;;9.41;62.32
23361;BME280;11852;50.082;18.554;2023-03-14T05:58:01;96744.0;;;9.47;61.92
23361;BME280;11852;50.082;18.554;2023-03-14T05:59:08;96743.5;;;9.44;61.97
23361;BME280;11852;50.082;18.554;2023-03-14T06:00:15;96747.5;;;9.43;62.07
23361;BME280;11852;50.082;18.554;2023-03-14T06:01:22;96748.0;;;9.53;61.86
23361;BME280;11852;50.082;18.554;2023-03-14T06:02:29;96743.5;;;9.44;62.19
23361;BME280;11852;50.082;18.554;2023-03-14T06:03:36;96745.0;;;9.42;62.17
23361;BME280;11852;50.082;18.554;2023-03-14T06:04:43;96747.5;;;9.48;62.05
23361;BME280;11852;50.082;18.554;2023-03-14T06:05:50;96744.49;;;9.49;62.0
23361;BME280;11852;50.082;18.554;2023-03-14T06:06:57;96745.5;;;9.49;62.02
23361;BME280;11852;50.082;18.554;2023-03-14T06:08:04;96746.5;;;9.55;61.85
23361;BME280;11852;50.082;18.554;2023-03-14T06:09:10;96742.5;;;9.47;62.21
23361;BME280;11852;50.082;18.554;2023-03-14T06:10:17;96740.0;;;9.47;62.03